Time;durP1;ratioP1;P1;durP2;ratioP2;P2;SDS_P1;SDS_P2;PMS_P1;PMS_P2;Temp;Humidity;BMP_temperature;BMP_pressure;BME280_temperature;BME280_humidity;BME280_pressure;Samples;Min_cycle;Max_cycle;Signal;HPM_P1;HPM_P2
2021/06/15 00:01:37;;;;;;;9.50;6.32;;;17.40;99.90;;;;;;5051177;28;20382;-50
2021/06/15 00:04:03;;;;;;;11.93;6.60;;;17.30;99.90;;;;;;5051194;28;20416;-50
2021/06/15 00:06:29;;;;;;;12.03;6.60;;;17.30;99.90;;;;;;5050833;28;20694;-54
2021/06/15 00:08:54;;;;;;;12.50;6.35;;;17.20;99.90;;;;;;5051637;28;20476;-50
2021/06/15 00:11:20;;;;;;;12.23;6.30;;;17.20;99.90;;;;;;5050049;28;20914;-50
2021/06/15 00:13:46;;;;;;;10.60;7.03;;;17.20;99.90;;;;;;5050452;28;20373;-50
2021/06/15 00:16:12;;;;;;;10.23;6.53;;;17.20;99.90;;;;;;5051690;28;20873;-50
2021/06/15 00:18:38;;;;;;;13.55;7.20;;;17.20;99.90;;;;;;5050611;28;20402;-50
2021/06/15 00:21:03;;;;;;;10.90;6.50;;;17.20;99.90;;;;;;5051416;28;20408;-50
2021/06/15 00:23:29;;;;;;;10.30;6.63;;;17.10;99.90;;;;;;5050800;28;20461;-53
2021/06/15 00:25:55;;;;;;;13.93;6.80;;;17.10;99.90;;;;;;5051357;28;20378;-50
2021/06/15 00:28:20;;;;;;;12.63;7.43;;;17.00;99.90;;;;;;5051415;28;20901;-50
2021/06/15 00:30:47;;;;;;;10.73;7.10;;;17.00;99.90;;;;;;5050636;28;20977;-50
2021/06/15 00:33:13;;;;;;;14.77;7.35;;;17.10;99.90;;;;;;5051238;28;20437;-50
2021/06/15 00:35:39;;;;;;;10.50;6.27;;;17.00;99.90;;;;;;5049221;28;20420;-50
2021/06/15 00:38:04;;;;;;;12.35;6.80;;;17.00;99.90;;;;;;5050935;28;20382;-50
2021/06/15 00:40:30;;;;;;;9.52;7.00;;;16.90;99.90;;;;;;5050284;28;20444;-50
2021/06/15 00:42:56;;;;;;;17.63;7.80;;;16.90;99.90;;;;;;5050972;28;20382;-50
2021/06/15 00:45:25;;;;;;;13.55;7.50;;;16.90;99.90;;;;;;5051212;28;20389;-50
2021/06/15 00:47:52;;;;;;;15.30;7.80;;;16.80;99.90;;;;;;5050207;28;20511;-50
2021/06/15 00:50:20;;;;;;;14.85;7.90;;;16.90;99.90;;;;;;5050559;28;20413;-50
2021/06/15 00:52:46;;;;;;;13.23;8.25;;;16.90;99.90;;;;;;5050265;28;20613;-50
2021/06/15 00:55:13;;;;;;;12.90;8.20;;;16.90;99.90;;;;;;5050207;28;20855;-50
2021/06/15 00:57:38;;;;;;;14.07;8.88;;;16.90;99.90;;;;;;5049646;28;20460;-50
2021/06/15 01:00:06;;;;;;;11.23;7.80;;;16.90;99.90;;;;;;5050572;28;20559;-52
2021/06/15 01:02:33;;;;;;;13.87;7.73;;;16.80;99.90;;;;;;5049830;28;20388;-50
2021/06/15 01:05:00;;;;;;;14.23;8.20;;;16.90;99.90;;;;;;5048896;28;20764;-50
2021/06/15 01:07:32;;;;;;;13.13;8.13;;;16.90;99.90;;;;;;5050478;28;20382;-54
2021/06/15 01:10:19;;;;;;;13.77;7.55;;;16.80;99.90;;;;;;5050439;28;20500;-50
2021/06/15 01:13:16;;;;;;;12.50;7.60;;;16.80;99.90;;;;;;5048568;28;20400;-50
2021/06/15 01:15:47;;;;;;;14.32;7.80;;;16.90;99.90;;;;;;5049892;28;20385;-50
2021/06/15 01:18:19;;;;;;;14.90;8.40;;;16.80;99.90;;;;;;5050226;28;20373;-50
2021/06/15 01:20:56;;;;;;;13.52;7.78;;;16.70;99.90;;;;;;5049717;28;20396;-51
2021/06/15 01:23:58;;;;;;;14.45;7.50;;;16.70;99.90;;;;;;5050341;28;20386;-50
2021/06/15 01:26:48;;;;;;;13.23;7.70;;;16.70;99.90;;;;;;5050392;28;20393;-50
2021/06/15 01:29:22;;;;;;;11.40;7.60;;;16.70;99.90;;;;;;5050286;28;20377;-49
2021/06/15 01:31:52;;;;;;;13.68;8.05;;;16.70;99.90;;;;;;5049554;28;20373;-50
2021/06/15 01:34:27;;;;;;;12.90;7.60;;;16.60;99.90;;;;;;5048839;28;20504;-50
2021/06/15 01:37:04;;;;;;;12.73;7.90;;;16.50;99.90;;;;;;5049736;28;20389;-50
2021/06/15 01:39:42;;;;;;;11.52;6.93;;;16.30;99.90;;;;;;5049927;28;20465;-53
2021/06/15 01:42:19;;;;;;;16.55;7.53;;;16.20;99.90;;;;;;5049887;28;20827;-50
2021/06/15 01:44:50;;;;;;;12.80;7.70;;;16.10;99.90;;;;;;5048169;28;20395;-49
2021/06/15 01:47:15;;;;;;;13.20;7.72;;;16.10;99.90;;;;;;5049562;28;20385;-50
2021/06/15 01:49:50;;;;;;;12.30;8.40;;;16.10;99.90;;;;;;5048758;28;20767;-50
2021/06/15 01:52:17;;;;;;;12.93;8.40;;;16.10;99.90;;;;;;5050037;28;20465;-50
2021/06/15 01:54:44;;;;;;;13.20;8.20;;;16.10;99.90;;;;;;5048938;28;20385;-50
2021/06/15 01:57:12;;;;;;;14.20;8.35;;;16.00;99.90;;;;;;5049831;28;20390;-50
2021/06/15 01:59:42;;;;;;;16.48;8.93;;;16.00;99.90;;;;;;5048914;28;20380;-50
2021/06/15 02:02:08;;;;;;;11.77;8.10;;;16.00;99.90;;;;;;5048477;28;20822;-50
2021/06/15 02:04:40;;;;;;;11.65;7.68;;;16.10;99.90;;;;;;5048367;28;20421;-50
2021/06/15 02:07:07;;;;;;;12.50;8.05;;;16.10;99.90;;;;;;5049365;28;21017;-50
2021/06/15 02:09:37;;;;;;;14.20;8.25;;;16.00;99.90;;;;;;5048922;28;20435;-50
2021/06/15 02:12:04;;;;;;;15.70;8.10;;;16.00;99.90;;;;;;5049579;28;20397;-49
2021/06/15 02:14:32;;;;;;;12.10;7.68;;;15.90;99.90;;;;;;5049216;28;20481;-51
2021/06/15 02:16:59;;;;;;;12.60;8.40;;;15.90;99.90;;;;;;5049399;28;20855;-48
2021/06/15 02:19:28;;;;;;;16.50;8.80;;;15.90;99.90;;;;;;5049689;28;20443;-48
2021/06/15 02:22:04;;;;;;;13.10;7.63;;;15.80;99.90;;;;;;5049189;28;20823;-47
2021/06/15 02:24:38;;;;;;;14.32;8.00;;;15.70;99.90;;;;;;5049016;28;20381;-51
2021/06/15 02:27:06;;;;;;;12.50;7.95;;;15.70;99.90;;;;;;5049482;28;20871;-47
2021/06/15 02:29:32;;;;;;;15.02;7.75;;;15.70;99.90;;;;;;5048349;28;20393;-50
2021/06/15 02:32:00;;;;;;;12.60;7.30;;;15.60;99.90;;;;;;5049185;28;20421;-48
2021/06/15 02:34:28;;;;;;;14.73;8.52;;;15.60;99.90;;;;;;5049137;28;20561;-48
2021/06/15 02:36:55;;;;;;;15.32;8.80;;;15.70;99.90;;;;;;5049143;28;20386;-48
2021/06/15 02:39:32;;;;;;;16.42;9.15;;;15.60;99.90;;;;;;5049220;28;20396;-48
2021/06/15 02:41:58;;;;;;;15.02;8.55;;;15.50;99.90;;;;;;5049591;28;20402;-48
2021/06/15 02:44:29;;;;;;;13.02;8.13;;;15.50;99.90;;;;;;5049421;28;20392;-48
2021/06/15 02:46:58;;;;;;;12.65;8.80;;;15.40;99.90;;;;;;5049005;28;20397;-48
2021/06/15 02:49:33;;;;;;;16.25;8.57;;;15.30;99.90;;;;;;5047946;28;20881;-48
2021/06/15 02:52:12;;;;;;;14.88;8.40;;;15.40;99.90;;;;;;5049178;28;20392;-48
2021/06/15 02:54:53;;;;;;;14.20;8.60;;;15.40;99.90;;;;;;5048198;28;20392;-47
2021/06/15 02:57:22;;;;;;;13.70;8.35;;;15.40;99.90;;;;;;5052728;28;20401;-49
2021/06/15 02:59:48;;;;;;;14.23;8.35;;;15.40;99.90;;;;;;5057109;28;20403;-48
2021/06/15 03:02:14;;;;;;;13.07;8.50;;;15.40;99.90;;;;;;5052598;28;20413;-49
2021/06/15 03:04:39;;;;;;;16.73;8.25;;;15.50;99.90;;;;;;5051675;28;20441;-49
2021/06/15 03:07:05;;;;;;;14.63;9.63;;;15.50;99.90;;;;;;5052557;28;20458;-49
2021/06/15 03:09:31;;;;;;;14.50;8.38;;;15.40;99.90;;;;;;5051987;28;21033;-52
2021/06/15 03:12:10;;;;;;;14.48;8.73;;;15.40;99.90;;;;;;5052708;28;20450;-50
2021/06/15 03:14:39;;;;;;;13.80;9.13;;;15.40;99.90;;;;;;5052014;28;20396;-48
2021/06/15 03:17:07;;;;;;;16.27;8.87;;;15.30;99.90;;;;;;5052372;28;20799;-48
2021/06/15 03:19:44;;;;;;;14.55;8.80;;;15.30;99.90;;;;;;5063633;28;20636;-49
2021/06/15 03:22:18;;;;;;;15.65;7.90;;;15.30;99.90;;;;;;5057423;28;20566;-49
2021/06/15 03:24:49;;;;;;;14.93;8.23;;;15.30;99.90;;;;;;5057932;28;20850;-49
2021/06/15 03:27:28;;;;;;;14.93;8.70;;;15.30;99.90;;;;;;5072592;28;20391;-49
2021/06/15 03:29:54;;;;;;;12.50;8.25;;;15.30;99.90;;;;;;5071683;28;20792;-49
2021/06/15 03:32:21;;;;;;;14.93;8.60;;;15.40;99.90;;;;;;5052561;28;20397;-49
2021/06/15 03:34:55;;;;;;;15.48;8.40;;;15.50;99.90;;;;;;5066515;28;20445;-51
2021/06/15 03:37:25;;;;;;;14.15;8.50;;;15.60;99.90;;;;;;5072045;28;20934;-49
2021/06/15 03:39:53;;;;;;;14.65;8.27;;;15.60;99.90;;;;;;5071467;28;20466;-49
2021/06/15 03:42:24;;;;;;;16.73;8.40;;;15.60;99.90;;;;;;5054181;28;20386;-49
2021/06/15 03:45:17;;;;;;;16.35;9.50;;;15.70;99.90;;;;;;5068315;28;20975;-50
2021/06/15 03:47:48;;;;;;;15.10;8.97;;;15.80;99.90;;;;;;5069193;28;20403;-48
2021/06/15 03:50:16;;;;;;;15.88;9.00;;;15.90;99.90;;;;;;5053949;28;20459;-48
2021/06/15 03:52:43;;;;;;;13.32;7.95;;;15.80;99.90;;;;;;5050934;28;20392;-48
2021/06/15 03:55:11;;;;;;;14.03;8.27;;;15.70;99.90;;;;;;5051025;28;20778;-49
2021/06/15 03:57:41;;;;;;;13.68;8.48;;;15.70;99.90;;;;;;5049742;28;20390;-49
2021/06/15 04:00:18;;;;;;;15.63;9.05;;;15.80;99.90;;;;;;5050790;28;20963;-49
2021/06/15 04:02:46;;;;;;;12.63;8.27;;;15.70;99.90;;;;;;5050992;28;20381;-49
2021/06/15 04:05:18;;;;;;;13.10;8.40;;;15.80;99.90;;;;;;5056409;28;20439;-48
2021/06/15 04:07:46;;;;;;;15.43;8.50;;;15.80;99.90;;;;;;5050032;28;20385;-49
2021/06/15 04:10:13;;;;;;;13.13;8.80;;;15.80;99.90;;;;;;5048966;28;20416;-49
2021/06/15 04:12:40;;;;;;;14.55;9.40;;;15.80;99.90;;;;;;5049334;28;20385;-49
2021/06/15 04:15:11;;;;;;;15.70;9.10;;;15.90;99.90;;;;;;5066792;28;20911;-49
2021/06/15 04:17:47;;;;;;;14.43;9.13;;;15.90;99.90;;;;;;5048062;28;20473;-49
2021/06/15 04:20:14;;;;;;;15.52;9.02;;;16.00;99.90;;;;;;5049023;28;20409;-49
2021/06/15 04:22:47;;;;;;;16.85;9.00;;;16.00;99.90;;;;;;5053022;28;20933;-48
2021/06/15 04:25:19;;;;;;;15.57;9.48;;;16.00;99.90;;;;;;5047714;28;20396;-49
2021/06/15 04:27:46;;;;;;;13.07;8.40;;;16.00;99.90;;;;;;5050068;28;20875;-49
2021/06/15 04:30:14;;;;;;;16.88;8.80;;;16.10;99.90;;;;;;5034634;28;20436;-49
2021/06/15 04:32:51;;;;;;;15.40;8.50;;;16.20;99.90;;;;;;5065508;28;20784;-49
2021/06/15 04:35:27;;;;;;;12.77;7.70;;;16.20;99.90;;;;;;5050501;28;20405;-49
2021/06/15 04:37:55;;;;;;;16.77;8.93;;;16.30;99.90;;;;;;5063021;28;20991;-49
2021/06/15 04:40:58;;;;;;;14.03;9.27;;;16.40;99.90;;;;;;5050389;28;20819;-49
2021/06/15 04:43:34;;;;;;;11.82;8.05;;;16.60;99.90;;;;;;5038824;28;20404;-49
2021/06/15 04:46:26;;;;;;;14.70;8.65;;;16.70;99.90;;;;;;5051319;28;20378;-50
2021/06/15 04:49:27;;;;;;;14.90;8.25;;;16.90;99.90;;;;;;5047259;28;20490;-49
2021/06/15 04:51:55;;;;;;;16.23;7.72;;;17.10;99.90;;;;;;5043179;28;20417;-48
2021/06/15 04:54:22;;;;;;;11.68;7.82;;;17.30;99.90;;;;;;5050308;28;20401;-51
2021/06/15 04:56:50;;;;;;;12.90;7.78;;;17.90;99.90;;;;;;5047892;28;20405;-51
2021/06/15 04:59:20;;;;;;;11.93;8.05;;;18.70;99.90;;;;;;5049343;28;21439;-49
2021/06/15 05:01:46;;;;;;;12.30;7.20;;;20.10;99.90;;;;;;5047147;28;20390;-50
2021/06/15 05:04:13;;;;;;;14.17;7.30;;;21.20;99.90;;;;;;5049704;28;20414;-49
2021/06/15 05:06:43;;;;;;;11.43;7.17;;;22.30;99.90;;;;;;5047894;28;20397;-49
2021/06/15 05:09:10;;;;;;;12.15;7.13;;;23.40;99.90;;;;;;5049662;28;20463;-50
2021/06/15 05:11:38;;;;;;;15.05;7.20;;;24.40;99.90;;;;;;5049622;28;20406;-50
2021/06/15 05:14:06;;;;;;;13.33;7.40;;;25.60;99.90;;;;;;5050260;28;20393;-50
2021/06/15 05:16:34;;;;;;;12.05;7.10;;;26.80;99.90;;;;;;5049507;28;20482;-54
2021/06/15 05:19:01;;;;;;;12.20;7.60;;;27.80;97.50;;;;;;5050412;28;20384;-49
2021/06/15 05:21:34;;;;;;;11.60;6.83;;;28.50;95.00;;;;;;5054324;28;20391;-50
2021/06/15 05:24:12;;;;;;;11.55;7.30;;;29.00;92.30;;;;;;5069031;28;20407;-50
2021/06/15 05:26:38;;;;;;;10.90;7.00;;;28.70;91.00;;;;;;5059062;28;20457;-49
2021/06/15 05:29:03;;;;;;;10.10;6.45;;;28.30;91.50;;;;;;5053724;28;20395;-49
2021/06/15 05:31:29;;;;;;;12.80;7.20;;;28.40;91.10;;;;;;5061392;28;20473;-49
2021/06/15 05:33:55;;;;;;;11.33;6.60;;;28.70;90.20;;;;;;5049584;28;20490;-49
2021/06/15 05:36:21;;;;;;;11.30;5.80;;;28.80;90.00;;;;;;5053779;28;20476;-50
2021/06/15 05:38:46;;;;;;;11.10;6.43;;;29.50;86.80;;;;;;5052054;28;20727;-49
2021/06/15 05:41:12;;;;;;;12.03;7.30;;;29.60;83.90;;;;;;5060235;28;20683;-49
2021/06/15 05:43:38;;;;;;;11.93;6.60;;;30.00;83.30;;;;;;5054415;28;20440;-51
2021/06/15 05:46:05;;;;;;;12.67;6.90;;;30.50;80.70;;;;;;5060098;28;20385;-50
2021/06/15 05:48:30;;;;;;;11.27;6.70;;;31.50;77.50;;;;;;5051457;28;20419;-54
2021/06/15 05:50:56;;;;;;;11.70;6.27;;;31.90;72.80;;;;;;5047105;28;20883;-51
2021/06/15 05:53:22;;;;;;;13.63;7.07;;;31.80;72.00;;;;;;5050180;28;20396;-51
2021/06/15 05:55:49;;;;;;;12.50;6.93;;;31.60;71.90;;;;;;5049612;28;20384;-51
2021/06/15 05:58:14;;;;;;;11.18;6.75;;;31.90;69.70;;;;;;5049260;28;20389;-50
2021/06/15 06:00:41;;;;;;;10.80;6.63;;;32.40;67.30;;;;;;5048268;28;20472;-50
2021/06/15 06:03:06;;;;;;;13.20;7.55;;;32.60;65.90;;;;;;5048938;28;20389;-50
2021/06/15 06:08:07;;;;;;;10.88;5.90;;;33.20;62.10;;;;;;5048812;28;20717;-48
2021/06/15 06:10:34;;;;;;;11.65;6.20;;;33.40;61.90;;;;;;5059018;28;20464;-53
2021/06/15 06:13:00;;;;;;;11.52;6.30;;;33.80;58.90;;;;;;5064229;28;20378;-50
2021/06/15 06:15:26;;;;;;;11.63;6.57;;;34.00;58.20;;;;;;5055349;28;20378;-49
2021/06/15 06:17:53;;;;;;;9.07;6.40;;;33.60;58.20;;;;;;5048002;28;20386;-49
2021/06/15 06:20:18;;;;;;;9.65;6.60;;;33.50;58.20;;;;;;5049062;28;20385;-50
2021/06/15 06:22:45;;;;;;;9.73;6.15;;;34.00;57.20;;;;;;5047858;28;20438;-49
2021/06/15 06:25:13;;;;;;;13.00;6.07;;;34.50;56.60;;;;;;5048893;28;20751;-49
2021/06/15 06:27:40;;;;;;;8.77;5.68;;;35.00;55.30;;;;;;5048942;28;20393;-52
2021/06/15 06:30:07;;;;;;;9.52;5.35;;;35.60;54.40;;;;;;5060927;28;20409;-49
2021/06/15 06:32:34;;;;;;;9.27;5.75;;;35.50;52.90;;;;;;5058788;28;20386;-53
2021/06/15 06:35:04;;;;;;;8.60;5.55;;;35.00;53.40;;;;;;5072561;28;20394;-49
2021/06/15 06:37:29;;;;;;;9.38;5.72;;;34.70;54.20;;;;;;5059032;28;20396;-49
2021/06/15 06:39:55;;;;;;;11.57;5.20;;;35.10;52.50;;;;;;5050882;28;20405;-50
2021/06/15 06:42:21;;;;;;;13.10;5.70;;;35.00;53.30;;;;;;5052917;28;20863;-49
2021/06/15 06:44:47;;;;;;;10.85;4.70;;;35.20;52.20;;;;;;5057663;28;20845;-50
2021/06/15 06:47:13;;;;;;;8.90;5.30;;;36.00;51.30;;;;;;5072685;28;20464;-49
2021/06/15 06:49:38;;;;;;;8.80;4.40;;;36.10;50.80;;;;;;5069713;28;20433;-51
2021/06/15 06:52:04;;;;;;;9.03;4.90;;;36.10;49.70;;;;;;5063781;28;20385;-51
2021/06/15 06:54:30;;;;;;;10.00;4.63;;;36.30;47.90;;;;;;5071478;28;20790;-50
2021/06/15 06:56:55;;;;;;;11.23;5.00;;;37.00;47.70;;;;;;5071908;28;20897;-50
2021/06/15 06:59:21;;;;;;;9.20;5.70;;;36.80;47.90;;;;;;5072698;28;20414;-50
2021/06/15 07:01:47;;;;;;;8.50;5.10;;;37.10;47.90;;;;;;5054174;28;20493;-50
2021/06/15 07:04:13;;;;;;;10.20;5.03;;;37.60;46.80;;;;;;5052247;28;20905;-51
2021/06/15 07:06:39;;;;;;;11.35;5.75;;;37.40;46.80;;;;;;5051714;28;20394;-51
2021/06/15 07:09:05;;;;;;;9.30;4.50;;;37.90;45.80;;;;;;5054415;28;20397;-51
2021/06/15 07:11:31;;;;;;;9.70;4.93;;;37.70;44.90;;;;;;5062017;28;20978;-52
2021/06/15 07:13:56;;;;;;;10.68;5.30;;;37.10;46.00;;;;;;5060399;28;20508;-50
2021/06/15 07:16:22;;;;;;;10.45;5.28;;;36.10;46.30;;;;;;5060726;28;20373;-50
2021/06/15 07:18:48;;;;;;;10.18;4.90;;;35.70;47.10;;;;;;5050488;28;20381;-51
2021/06/15 07:21:14;;;;;;;9.32;4.80;;;35.50;48.00;;;;;;5051513;28;20425;-50
2021/06/15 07:23:41;;;;;;;9.60;4.82;;;35.70;47.60;;;;;;5054952;28;20531;-50
2021/06/15 07:26:07;;;;;;;8.30;4.97;;;35.70;47.90;;;;;;5059283;28;20384;-50
2021/06/15 07:28:33;;;;;;;9.80;4.73;;;35.50;48.20;;;;;;5072117;28;20433;-52
2021/06/15 07:30:59;;;;;;;9.90;4.30;;;35.40;46.80;;;;;;5071860;28;20465;-50
2021/06/15 07:33:25;;;;;;;9.50;4.53;;;36.20;47.30;;;;;;5068312;28;20774;-50
2021/06/15 07:35:50;;;;;;;7.67;4.60;;;36.30;47.00;;;;;;5054620;28;20783;-51
2021/06/15 07:38:16;;;;;;;10.43;4.80;;;37.00;46.00;;;;;;5056295;28;20746;-51
2021/06/15 07:40:42;;;;;;;10.63;5.30;;;37.20;45.00;;;;;;5061416;28;20418;-50
2021/06/15 07:43:08;;;;;;;8.93;4.50;;;37.00;45.10;;;;;;5065172;28;20377;-51
2021/06/15 07:45:35;;;;;;;9.53;4.50;;;36.90;45.20;;;;;;5067716;28;20384;-54
2021/06/15 07:48:01;;;;;;;7.25;4.40;;;37.30;45.00;;;;;;5063133;28;20556;-50
2021/06/15 07:50:27;;;;;;;7.70;4.45;;;37.70;44.80;;;;;;5067954;28;20435;-50
2021/06/15 07:52:53;;;;;;;9.07;4.15;;;38.40;44.10;;;;;;5069134;28;20372;-51
2021/06/15 07:55:19;;;;;;;10.47;4.70;;;38.00;44.80;;;;;;5071465;28;20467;-50
2021/06/15 07:57:47;;;;;;;11.57;5.13;;;38.10;43.60;;;;;;5068904;28;20387;-50
2021/06/15 08:00:14;;;;;;;9.10;4.78;;;38.80;43.20;;;;;;5051094;28;20385;-51
2021/06/15 08:02:41;;;;;;;10.52;5.22;;;40.20;41.40;;;;;;5051033;28;20381;-49
2021/06/15 08:05:07;;;;;;;9.20;4.80;;;39.70;42.40;;;;;;5050646;28;20409;-49
2021/06/15 08:07:33;;;;;;;10.75;4.50;;;38.90;43.00;;;;;;5050968;28;20390;-53
2021/06/15 08:09:59;;;;;;;8.27;4.78;;;38.10;44.10;;;;;;5050642;28;20424;-50
2021/06/15 08:12:25;;;;;;;8.70;5.00;;;37.80;44.70;;;;;;5051303;28;20460;-50
2021/06/15 08:14:50;;;;;;;10.35;5.20;;;37.40;45.00;;;;;;5050100;28;20424;-50
2021/06/15 08:17:16;;;;;;;8.32;4.88;;;37.70;44.50;;;;;;5051520;28;20735;-51
2021/06/15 08:19:42;;;;;;;9.17;5.13;;;37.30;44.60;;;;;;5049915;28;20814;-50
2021/06/15 08:22:08;;;;;;;10.32;4.50;;;37.50;44.40;;;;;;5052922;28;20887;-50
2021/06/15 08:24:34;;;;;;;8.45;4.30;;;37.40;44.60;;;;;;5053939;28;20486;-54
2021/06/15 08:26:59;;;;;;;8.73;4.47;;;37.20;45.10;;;;;;5070450;28;20372;-51
2021/06/15 08:29:25;;;;;;;9.52;4.60;;;37.10;45.00;;;;;;5070645;28;20376;-50
2021/06/15 08:31:52;;;;;;;9.60;4.60;;;37.20;45.20;;;;;;5069516;28;20419;-50
2021/06/15 08:34:17;;;;;;;9.10;6.35;;;37.10;45.40;;;;;;5061080;28;20429;-51
2021/06/15 08:36:43;;;;;;;9.20;4.90;;;36.50;46.30;;;;;;5052701;28;20420;-51
2021/06/15 08:39:09;;;;;;;9.57;4.90;;;36.20;45.00;;;;;;5070663;28;20390;-50
2021/06/15 08:41:36;;;;;;;10.40;5.00;;;36.10;45.30;;;;;;5069859;28;20873;-54
2021/06/15 08:44:03;;;;;;;6.97;4.72;;;36.30;45.40;;;;;;5054834;28;20898;-50
2021/06/15 08:46:30;;;;;;;8.20;5.27;;;36.10;45.50;;;;;;5050719;28;20373;-51
2021/06/15 08:48:56;;;;;;;7.80;5.50;;;36.20;44.80;;;;;;5049980;28;20384;-51
2021/06/15 08:51:22;;;;;;;7.60;4.20;;;36.20;44.70;;;;;;5060561;28;20423;-51
2021/06/15 08:53:51;;;;;;;7.97;4.47;;;35.50;45.20;;;;;;5058451;28;20879;-50
2021/06/15 08:56:33;;;;;;;7.85;3.88;;;35.50;45.10;;;;;;5053721;28;20725;-50
2021/06/15 08:59:26;;;;;;;10.60;5.70;;;35.80;45.90;;;;;;5054232;28;20860;-51
2021/06/15 09:02:01;;;;;;;9.40;5.67;;;36.40;44.20;;;;;;5059591;28;20407;-52
2021/06/15 09:04:27;;;;;;;8.25;5.75;;;37.40;42.70;;;;;;5055228;28;20450;-51
2021/06/15 09:06:58;;;;;;;10.30;6.90;;;36.80;43.10;;;;;;5060511;28;20404;-51
2021/06/15 09:09:37;;;;;;;7.30;4.70;;;35.80;43.00;;;;;;5049922;28;20389;-50
2021/06/15 09:12:04;;;;;;;9.05;4.97;;;36.80;43.80;;;;;;5050136;28;20412;-51
2021/06/15 09:14:43;;;;;;;8.10;4.40;;;37.30;42.80;;;;;;5058434;28;20404;-50
2021/06/15 09:17:14;;;;;;;9.20;4.77;;;37.70;42.50;;;;;;5055551;28;20399;-51
2021/06/15 09:19:42;;;;;;;9.00;4.03;;;38.60;41.00;;;;;;5058206;28;20397;-52
2021/06/15 09:22:22;;;;;;;7.07;4.10;;;38.40;39.70;;;;;;5060064;28;20812;-51
2021/06/15 09:24:47;;;;;;;8.32;3.90;;;37.80;39.90;;;;;;5029440;28;20376;-51
2021/06/15 09:27:13;;;;;;;7.63;3.80;;;37.10;40.00;;;;;;5029757;28;20401;-52
2021/06/15 09:29:46;;;;;;;9.75;4.13;;;36.80;41.00;;;;;;5029017;28;20837;-56
2021/06/15 09:32:26;;;;;;;8.60;4.10;;;36.90;41.20;;;;;;5029983;28;20387;-52
2021/06/15 09:35:00;;;;;;;7.50;3.70;;;37.40;41.10;;;;;;5051917;28;20399;-51
2021/06/15 09:37:39;;;;;;;10.85;3.85;;;37.30;41.60;;;;;;5050560;28;20397;-51
2021/06/15 09:40:29;;;;;;;10.97;3.87;;;37.60;40.50;;;;;;5050507;28;22477;-51
2021/06/15 09:43:00;;;;;;;7.15;3.35;;;37.80;40.20;;;;;;5055077;28;20624;-51
2021/06/15 09:45:46;;;;;;;9.68;4.03;;;37.10;41.10;;;;;;5052498;28;20870;-51
2021/06/15 09:48:35;;;;;;;7.70;4.18;;;37.00;41.10;;;;;;5056243;28;20388;-51
2021/06/15 09:51:13;;;;;;;8.30;4.20;;;37.70;41.00;;;;;;5055691;28;20412;-50
2021/06/15 09:53:44;;;;;;;8.57;4.05;;;38.20;40.20;;;;;;5057814;28;20739;-50
2021/06/15 09:56:13;;;;;;;10.00;4.00;;;37.60;39.80;;;;;;5049948;28;20397;-51
2021/06/15 09:58:48;;;;;;;6.15;3.60;;;36.90;40.80;;;;;;5058309;28;20492;-55
2021/06/15 10:01:28;;;;;;;8.18;3.70;;;36.40;42.00;;;;;;5053326;28;20416;-51
2021/06/15 10:04:14;;;;;;;7.45;3.83;;;37.10;41.30;;;;;;5053678;28;20510;-52
2021/06/15 10:06:45;;;;;;;7.15;3.60;;;37.90;40.60;;;;;;5043183;28;20409;-54
2021/06/15 10:09:11;;;;;;;6.88;3.55;;;38.50;39.30;;;;;;5046794;28;20794;-50
2021/06/15 10:11:40;;;;;;;7.20;3.47;;;37.80;38.70;;;;;;5047961;28;20484;-54
2021/06/15 10:14:06;;;;;;;8.45;3.90;;;37.20;39.80;;;;;;5053590;28;20902;-51
2021/06/15 10:16:31;;;;;;;7.90;3.30;;;36.70;40.20;;;;;;5045240;28;20398;-51
2021/06/15 10:18:59;;;;;;;7.30;3.40;;;36.80;40.10;;;;;;5050967;28;20393;-52
2021/06/15 10:21:25;;;;;;;7.82;3.60;;;37.10;39.40;;;;;;5044455;28;20444;-51
2021/06/15 10:23:51;;;;;;;9.88;4.07;;;37.40;39.70;;;;;;5054457;28;20500;-52
2021/06/15 10:26:17;;;;;;;8.23;3.45;;;37.20;39.90;;;;;;5049377;28;20404;-55
2021/06/15 10:28:42;;;;;;;7.17;3.30;;;36.90;39.60;;;;;;5047797;28;20792;-51
2021/06/15 10:31:08;;;;;;;8.85;7.90;;;36.40;40.30;;;;;;5048359;28;20896;-52
2021/06/15 10:33:45;;;;;;;11.63;8.10;;;35.70;40.60;;;;;;5053919;28;20446;-50
2021/06/15 10:36:12;;;;;;;8.63;5.70;;;34.70;41.50;;;;;;5049519;28;20906;-49
2021/06/15 10:38:46;;;;;;;9.88;8.98;;;34.60;41.50;;;;;;5046291;28;20422;-54
2021/06/15 10:41:25;;;;;;;8.93;8.02;;;34.30;40.80;;;;;;5048680;28;20405;-49
2021/06/15 10:43:58;;;;;;;11.70;5.32;;;33.50;41.30;;;;;;5056991;28;20456;-50
2021/06/15 10:46:33;;;;;;;8.40;6.80;;;33.50;42.70;;;;;;5061153;28;20393;-51
2021/06/15 10:49:08;;;;;;;7.43;6.63;;;33.70;41.80;;;;;;5047972;28;20464;-51
2021/06/15 10:51:53;;;;;;;7.97;7.10;;;33.80;41.40;;;;;;5048217;28;20427;-50
2021/06/15 10:54:42;;;;;;;7.20;6.30;;;33.50;41.90;;;;;;5046963;28;20883;-52
2021/06/15 10:57:31;;;;;;;9.60;3.70;;;33.20;43.20;;;;;;5055011;28;20534;-50
2021/06/15 11:00:06;;;;;;;9.43;6.90;;;33.40;40.10;;;;;;5050391;28;20548;-52
2021/06/15 11:02:32;;;;;;;9.57;6.78;;;33.40;41.30;;;;;;5051703;28;20786;-51
2021/06/15 11:05:19;;;;;;;8.55;6.40;;;33.40;41.60;;;;;;5055460;28;20418;-49
2021/06/15 11:07:45;;;;;;;7.30;6.27;;;33.60;41.30;;;;;;5048013;28;20401;-50
2021/06/15 11:10:10;;;;;;;7.05;6.25;;;33.40;40.50;;;;;;5051761;28;20765;-51
2021/06/15 11:12:47;;;;;;;9.27;5.28;;;33.10;41.40;;;;;;5051736;28;20418;-54
2021/06/15 11:15:21;;;;;;;6.30;4.70;;;33.10;41.50;;;;;;5051693;28;20384;-49
2021/06/15 11:17:56;;;;;;;10.93;5.87;;;33.10;40.90;;;;;;5067306;28;20416;-52
2021/06/15 11:20:27;;;;;;;8.55;5.60;;;32.90;41.50;;;;;;5070251;28;20411;-50
2021/06/15 11:23:17;;;;;;;6.53;4.97;;;33.10;41.70;;;;;;5071663;28;20438;-50
2021/06/15 11:25:50;;;;;;;7.20;4.85;;;33.30;42.20;;;;;;5063718;28;20378;-51
2021/06/15 11:28:35;;;;;;;7.55;5.47;;;33.30;42.70;;;;;;5066199;28;20477;-50
2021/06/15 11:31:20;;;;;;;7.25;5.05;;;33.40;42.10;;;;;;5056433;28;20989;-50
2021/06/15 11:34:04;;;;;;;6.78;5.40;;;33.60;41.70;;;;;;5050306;28;20405;-51
2021/06/15 11:36:51;;;;;;;8.18;5.78;;;33.10;41.60;;;;;;5051621;28;20384;-52
2021/06/15 11:39:23;;;;;;;11.87;6.77;;;32.80;44.40;;;;;;5051668;28;20469;-52
2021/06/15 11:42:09;;;;;;;8.32;6.05;;;32.90;43.00;;;;;;5066023;28;20488;-52
2021/06/15 11:44:52;;;;;;;8.15;7.00;;;32.70;42.50;;;;;;5050633;28;20398;-52
2021/06/15 11:47:42;;;;;;;8.55;5.72;;;32.70;42.10;;;;;;5044927;28;20971;-51
2021/06/15 11:50:21;;;;;;;7.28;6.35;;;32.70;42.70;;;;;;5061370;28;20889;-51
2021/06/15 11:52:52;;;;;;;9.02;7.40;;;32.90;43.20;;;;;;5058804;28;20397;-50
2021/06/15 11:55:23;;;;;;;8.02;5.78;;;33.10;41.20;;;;;;5050050;28;21245;-51
2021/06/15 11:57:49;;;;;;;7.55;5.90;;;32.90;42.30;;;;;;5033546;28;20382;-51
2021/06/15 12:00:17;;;;;;;6.80;6.10;;;32.80;42.10;;;;;;5049524;28;20421;-50
2021/06/15 12:02:43;;;;;;;8.40;6.00;;;32.80;42.20;;;;;;5056770;28;20407;-51
2021/06/15 12:05:15;;;;;;;6.60;5.90;;;32.80;41.10;;;;;;5050673;28;20417;-51
2021/06/15 12:07:49;;;;;;;7.55;6.32;;;32.60;41.10;;;;;;5050348;28;20915;-56
2021/06/15 12:10:15;;;;;;;10.25;6.10;;;32.40;40.90;;;;;;5055819;28;20783;-50
2021/06/15 12:13:01;;;;;;;7.35;5.60;;;32.60;42.50;;;;;;5049462;28;20419;-56
2021/06/15 12:15:36;;;;;;;9.20;6.65;;;32.60;43.60;;;;;;5055359;28;20389;-51
2021/06/15 12:18:04;;;;;;;7.93;7.00;;;32.60;43.90;;;;;;5058548;28;20467;-52
2021/06/15 12:20:33;;;;;;;7.20;5.60;;;32.40;44.90;;;;;;5058991;28;20387;-52
2021/06/15 12:23:26;;;;;;;6.60;5.47;;;32.90;44.80;;;;;;5052744;28;20502;-50
2021/06/15 12:25:53;;;;;;;7.40;5.18;;;32.90;43.70;;;;;;5058032;28;20775;-51
2021/06/15 12:28:21;;;;;;;6.40;5.53;;;32.60;43.00;;;;;;5055934;28;20376;-53
2021/06/15 12:31:10;;;;;;;8.82;5.93;;;32.40;43.20;;;;;;5056165;28;20823;-51
2021/06/15 12:33:37;;;;;;;7.70;5.90;;;32.50;43.50;;;;;;5058592;28;20426;-52
2021/06/15 12:36:09;;;;;;;7.90;5.20;;;32.50;43.10;;;;;;5053830;28;20436;-52
2021/06/15 12:38:35;;;;;;;7.10;5.20;;;32.50;43.80;;;;;;5051212;28;20745;-52
2021/06/15 12:41:07;;;;;;;7.10;5.00;;;32.80;43.20;;;;;;5057018;28;20455;-52
2021/06/15 12:43:34;;;;;;;8.10;6.00;;;32.90;43.60;;;;;;5048047;28;20447;-52
2021/06/15 12:46:16;;;;;;;7.13;6.15;;;33.10;43.00;;;;;;5049082;28;20461;-52
2021/06/15 12:48:51;;;;;;;7.45;5.80;;;33.10;42.60;;;;;;5055386;28;20389;-55
2021/06/15 12:51:18;;;;;;;6.90;5.30;;;32.80;42.00;;;;;;5058186;28;20803;-51
2021/06/15 12:53:45;;;;;;;8.20;5.88;;;32.80;42.00;;;;;;5049019;28;20393;-51
2021/06/15 12:56:23;;;;;;;7.45;5.30;;;32.70;43.20;;;;;;5051805;28;20390;-52
2021/06/15 12:58:50;;;;;;;7.97;5.43;;;33.00;42.50;;;;;;5054451;28;20397;-50
2021/06/15 13:01:34;;;;;;;7.00;5.70;;;33.30;42.20;;;;;;5061540;28;21020;-51